Time;durP1;ratioP1;P1;durP2;ratioP2;P2;SDS_P1;SDS_P2;PMS_P1;PMS_P2;Temp;Humidity;BMP_temperature;BMP_pressure;BME280_temperature;BME280_humidity;BME280_pressure;Samples;Min_cycle;Max_cycle;Signal;HPM_P1;HPM_P2
2023/01/07 00:00:45;;;;;;;23.63;15.80;;;;;;;;;;5040354;28;20029;-78
2023/01/07 00:03:11;;;;;;;19.70;15.20;;;;;;;;;;5051791;28;20709;-78
2023/01/07 00:05:36;;;;;;;17.90;13.05;;;;;;;;;;5045589;28;20037;-78
2023/01/07 00:08:03;;;;;;;19.58;13.68;;;;;;;;;;5045387;28;20519;-78
2023/01/07 00:10:29;;;;;;;25.25;17.17;;;;;;;;;;5051454;28;20048;-77
2023/01/07 00:12:54;;;;;;;23.48;17.38;;;;;;;;;;5049174;28;20033;-78
2023/01/07 00:15:20;;;;;;;20.40;13.73;;;;;;;;;;5051911;28;20459;-77
2023/01/07 00:17:46;;;;;;;18.63;12.80;;;;;;;;;;5048636;28;20109;-78
2023/01/07 00:20:12;;;;;;;16.85;11.80;;;;;;;;;;5043745;28;20036;-78
2023/01/07 00:22:38;;;;;;;21.42;13.43;;;;;;;;;;5050287;28;20115;-79
2023/01/07 00:25:05;;;;;;;18.98;12.80;;;;;;;;;;5032871;28;20456;-78
2023/01/07 00:27:31;;;;;;;17.35;10.25;;;;;;;;;;5044878;28;20032;-78
2023/01/07 00:29:57;;;;;;;17.35;12.20;;;;;;;;;;5052202;28;20033;-78
2023/01/07 00:32:51;;;;;;;16.98;11.43;;;;;;;;;;5051341;28;20059;-79
2023/01/07 00:35:21;;;;;;;16.45;10.95;;;;;;;;;;5044616;28;20044;-78
2023/01/07 00:37:50;;;;;;;16.00;10.65;;;;;;;;;;5041762;28;20366;-78
2023/01/07 00:40:17;;;;;;;19.42;11.65;;;;;;;;;;5046397;28;20033;-78
2023/01/07 00:43:03;;;;;;;18.77;12.25;;;;;;;;;;5050652;28;20066;-78
2023/01/07 00:45:31;;;;;;;16.48;11.43;;;;;;;;;;5059201;28;20039;-78
2023/01/07 00:48:00;;;;;;;22.00;13.55;;;;;;;;;;5051013;28;20056;-78
2023/01/07 00:50:28;;;;;;;22.60;16.48;;;;;;;;;;5051369;28;20372;-78
2023/01/07 00:52:55;;;;;;;26.42;14.73;;;;;;;;;;5046093;28;20029;-78
2023/01/07 00:55:21;;;;;;;19.23;12.02;;;;;;;;;;5034607;28;20085;-78
2023/01/07 00:57:47;;;;;;;17.75;10.20;;;;;;;;;;5047985;28;20380;-78
2023/01/07 01:00:15;;;;;;;18.55;10.60;;;;;;;;;;5051378;28;20158;-78
2023/01/07 01:02:41;;;;;;;17.50;10.35;;;;;;;;;;5051098;28;20387;-78
2023/01/07 01:05:07;;;;;;;17.02;9.88;;;;;;;;;;5048915;28;20037;-78
2023/01/07 01:07:33;;;;;;;19.05;10.77;;;;;;;;;;5036962;28;20036;-78
2023/01/07 01:10:00;;;;;;;15.45;9.45;;;;;;;;;;5037518;28;20065;-78
2023/01/07 01:12:26;;;;;;;16.58;9.70;;;;;;;;;;5038043;28;20060;-78
2023/01/07 01:14:52;;;;;;;15.90;9.80;;;;;;;;;;5046778;28;20076;-78
2023/01/07 01:17:18;;;;;;;14.32;9.57;;;;;;;;;;5038344;28;20060;-78
2023/01/07 01:19:44;;;;;;;18.15;9.93;;;;;;;;;;5039113;28;20455;-78
2023/01/07 01:22:10;;;;;;;17.08;10.77;;;;;;;;;;5043315;28;20047;-78
2023/01/07 01:24:36;;;;;;;15.27;10.48;;;;;;;;;;5043250;28;20052;-78
2023/01/07 01:27:01;;;;;;;17.23;10.07;;;;;;;;;;5038991;28;20903;-78
2023/01/07 01:29:28;;;;;;;20.25;11.30;;;;;;;;;;5041258;28;20033;-78
2023/01/07 01:31:54;;;;;;;17.02;10.55;;;;;;;;;;5050258;28;20033;-78
2023/01/07 01:34:20;;;;;;;17.15;9.68;;;;;;;;;;5043014;28;20021;-78
2023/01/07 01:36:46;;;;;;;18.92;10.10;;;;;;;;;;5043936;28;20151;-78
2023/01/07 01:39:12;;;;;;;19.85;11.45;;;;;;;;;;5039902;28;20463;-78
2023/01/07 01:41:38;;;;;;;20.20;11.23;;;;;;;;;;5045807;28;20055;-78
2023/01/07 01:44:22;;;;;;;18.73;11.07;;;;;;;;;;5045055;28;20457;-79
2023/01/07 01:46:48;;;;;;;22.33;12.13;;;;;;;;;;5050140;28;20048;-78
2023/01/07 01:49:23;;;;;;;21.02;11.48;;;;;;;;;;5049651;28;20033;-78
2023/01/07 01:51:53;;;;;;;18.38;11.48;;;;;;;;;;5032837;28;20033;-78
2023/01/07 01:54:19;;;;;;;20.65;12.23;;;;;;;;;;5042796;28;20090;-78
2023/01/07 01:56:47;;;;;;;18.02;11.55;;;;;;;;;;5048839;28;20391;-78
2023/01/07 01:59:16;;;;;;;20.27;10.60;;;;;;;;;;5046431;28;20049;-78
2023/01/07 02:01:42;;;;;;;17.90;11.55;;;;;;;;;;5049801;28;20033;-78
2023/01/07 02:04:10;;;;;;;17.15;10.80;;;;;;;;;;5050052;28;20051;-78
2023/01/07 02:06:39;;;;;;;19.25;10.73;;;;;;;;;;5049647;28;20060;-78
2023/01/07 02:09:05;;;;;;;19.27;10.68;;;;;;;;;;5035461;28;20156;-78
2023/01/07 02:11:43;;;;;;;17.80;10.80;;;;;;;;;;5032051;28;20112;-78
2023/01/07 02:14:15;;;;;;;19.45;11.15;;;;;;;;;;5043045;28;20033;-78
2023/01/07 02:16:50;;;;;;;17.93;11.67;;;;;;;;;;5043884;28;20722;-78
2023/01/07 02:19:32;;;;;;;21.05;11.35;;;;;;;;;;5045037;28;20878;-78
2023/01/07 02:22:17;;;;;;;17.10;9.85;;;;;;;;;;5036884;28;20042;-78
2023/01/07 02:25:07;;;;;;;17.00;10.77;;;;;;;;;;5039957;28;20084;-78
2023/01/07 02:27:45;;;;;;;16.65;9.13;;;;;;;;;;5040043;28;20435;-78
2023/01/07 02:30:17;;;;;;;15.77;9.27;;;;;;;;;;5049596;28;20119;-79
2023/01/07 02:32:57;;;;;;;15.93;9.10;;;;;;;;;;5042026;28;20041;-78
2023/01/07 02:35:23;;;;;;;14.85;9.02;;;;;;;;;;5047920;28;20029;-78
2023/01/07 02:38:01;;;;;;;16.98;9.20;;;;;;;;;;5040514;28;20044;-78
2023/01/07 02:40:36;;;;;;;15.85;9.65;;;;;;;;;;5040755;28;20098;-78
2023/01/07 02:43:02;;;;;;;18.58;10.43;;;;;;;;;;5046117;28;20046;-78
2023/01/07 02:45:28;;;;;;;16.15;10.88;;;;;;;;;;5049665;28;20533;-78
2023/01/07 02:47:57;;;;;;;16.95;10.80;;;;;;;;;;5024491;28;20044;-78
2023/01/07 02:50:23;;;;;;;17.20;10.98;;;;;;;;;;5041423;28;20033;-78
2023/01/07 02:52:49;;;;;;;17.55;10.30;;;;;;;;;;5039588;28;20082;-78
2023/01/07 02:55:17;;;;;;;18.20;10.82;;;;;;;;;;5037397;28;20054;-78
2023/01/07 02:57:52;;;;;;;20.75;10.93;;;;;;;;;;5045747;28;20037;-78
2023/01/07 03:00:27;;;;;;;16.90;11.25;;;;;;;;;;5046866;28;20036;-78
2023/01/07 03:02:53;;;;;;;17.23;10.73;;;;;;;;;;5044993;28;20037;-78
2023/01/07 03:05:30;;;;;;;16.88;10.13;;;;;;;;;;5048678;28;20729;-78
2023/01/07 03:08:22;;;;;;;17.00;10.55;;;;;;;;;;5047991;28;20037;-78
2023/01/07 03:10:55;;;;;;;13.80;9.32;;;;;;;;;;5042887;28;20499;-78
2023/01/07 03:13:24;;;;;;;19.27;11.75;;;;;;;;;;5038400;28;20052;-78
2023/01/07 03:15:57;;;;;;;16.15;10.55;;;;;;;;;;5046025;28;20025;-78
2023/01/07 03:18:28;;;;;;;18.65;11.07;;;;;;;;;;5033395;28;20045;-78
2023/01/07 03:20:57;;;;;;;17.83;11.48;;;;;;;;;;5043125;28;20876;-77
2023/01/07 03:23:24;;;;;;;18.45;11.73;;;;;;;;;;5032337;28;20038;-78
2023/01/07 03:25:51;;;;;;;17.83;11.23;;;;;;;;;;5036711;28;20445;-78
2023/01/07 03:28:19;;;;;;;14.98;10.20;;;;;;;;;;5048301;28;20407;-78
2023/01/07 03:30:45;;;;;;;18.48;11.55;;;;;;;;;;5038923;28;20039;-78
2023/01/07 03:33:14;;;;;;;16.48;11.02;;;;;;;;;;5038990;28;20065;-78
2023/01/07 03:35:42;;;;;;;17.60;10.88;;;;;;;;;;5041705;28;20029;-78
2023/01/07 03:38:08;;;;;;;19.55;12.00;;;;;;;;;;5044341;28;20114;-78
2023/01/07 03:40:34;;;;;;;17.85;10.75;;;;;;;;;;5038067;28;20075;-77
2023/01/07 03:43:00;;;;;;;19.42;13.00;;;;;;;;;;5043822;28;20154;-78
2023/01/07 03:45:27;;;;;;;21.92;15.00;;;;;;;;;;5039345;28;20136;-78
2023/01/07 03:47:54;;;;;;;23.83;16.08;;;;;;;;;;5039919;28;20695;-78
2023/01/07 03:50:20;;;;;;;20.88;14.95;;;;;;;;;;5041666;28;20064;-78
2023/01/07 03:52:47;;;;;;;21.23;15.60;;;;;;;;;;5036437;28;20048;-78
2023/01/07 03:55:13;;;;;;;19.83;14.88;;;;;;;;;;5038017;28;20400;-78
2023/01/07 03:57:39;;;;;;;18.50;12.82;;;;;;;;;;5038308;28;20085;-78
2023/01/07 04:00:06;;;;;;;20.65;11.40;;;;;;;;;;5035685;28;20029;-78
2023/01/07 04:02:32;;;;;;;16.50;11.05;;;;;;;;;;5041860;28;20067;-78
2023/01/07 04:04:58;;;;;;;17.85;12.00;;;;;;;;;;5036853;28;20473;-78
2023/01/07 04:07:24;;;;;;;16.13;11.60;;;;;;;;;;5039044;28;20040;-78
2023/01/07 04:09:50;;;;;;;17.48;12.18;;;;;;;;;;5044110;28;20033;-78
2023/01/07 04:12:17;;;;;;;18.63;12.30;;;;;;;;;;5043263;28;20033;-77
2023/01/07 04:14:43;;;;;;;18.48;11.77;;;;;;;;;;5042894;28;20682;-78
2023/01/07 04:17:09;;;;;;;17.00;12.10;;;;;;;;;;5045936;28;20037;-78
2023/01/07 04:19:37;;;;;;;17.00;11.60;;;;;;;;;;5041790;28;20455;-78
2023/01/07 04:22:04;;;;;;;17.50;11.23;;;;;;;;;;5027080;28;20484;-78
2023/01/07 04:24:30;;;;;;;19.38;10.90;;;;;;;;;;5039674;28;20033;-78
2023/01/07 04:26:56;;;;;;;17.27;10.85;;;;;;;;;;5039553;28;20079;-78
2023/01/07 04:29:22;;;;;;;15.85;10.60;;;;;;;;;;5038659;28;20045;-78
2023/01/07 04:31:49;;;;;;;20.02;11.30;;;;;;;;;;5043481;28;20109;-78
2023/01/07 04:34:15;;;;;;;21.13;11.90;;;;;;;;;;5041555;28;20051;-78
2023/01/07 04:36:41;;;;;;;21.17;13.15;;;;;;;;;;5040278;28;20820;-78
2023/01/07 04:39:07;;;;;;;20.48;13.07;;;;;;;;;;5041256;28;20037;-77
2023/01/07 04:41:33;;;;;;;19.08;12.75;;;;;;;;;;5043779;28;20904;-79
2023/01/07 04:43:59;;;;;;;15.48;10.27;;;;;;;;;;5040605;28;20094;-78
2023/01/07 04:46:25;;;;;;;19.48;10.38;;;;;;;;;;5032941;28;20029;-78
2023/01/07 04:48:51;;;;;;;14.73;10.73;;;;;;;;;;5050042;28;20492;-77
2023/01/07 04:51:19;;;;;;;17.52;11.45;;;;;;;;;;5044266;28;20076;-78
2023/01/07 04:53:45;;;;;;;18.33;11.80;;;;;;;;;;5047407;28;20120;-78
2023/01/07 04:56:11;;;;;;;17.60;11.38;;;;;;;;;;5045550;28;20056;-78
2023/01/07 04:58:37;;;;;;;16.05;11.25;;;;;;;;;;5043611;28;20022;-78
2023/01/07 05:01:03;;;;;;;18.58;11.35;;;;;;;;;;5047336;28;20468;-78
2023/01/07 05:03:30;;;;;;;19.88;11.38;;;;;;;;;;5039905;28;20125;-78
2023/01/07 05:05:56;;;;;;;16.45;11.20;;;;;;;;;;5039590;28;20151;-78
2023/01/07 05:08:22;;;;;;;16.98;11.35;;;;;;;;;;5043804;28;20215;-78
2023/01/07 05:10:49;;;;;;;19.33;12.00;;;;;;;;;;5032967;28;20033;-78
2023/01/07 05:13:19;;;;;;;16.40;10.68;;;;;;;;;;5035999;28;20069;-78
2023/01/07 05:15:45;;;;;;;18.50;11.18;;;;;;;;;;5044891;28;20079;-78
2023/01/07 05:18:11;;;;;;;19.27;12.18;;;;;;;;;;5038800;28;20453;-78
2023/01/07 05:20:37;;;;;;;18.77;12.60;;;;;;;;;;5044086;28;20033;-77
2023/01/07 05:23:04;;;;;;;19.20;11.85;;;;;;;;;;5041460;28;20041;-78
2023/01/07 05:25:30;;;;;;;19.45;11.15;;;;;;;;;;5032209;28;20051;-78
2023/01/07 05:27:56;;;;;;;19.92;12.77;;;;;;;;;;5045877;28;20387;-78
2023/01/07 05:30:22;;;;;;;17.27;10.80;;;;;;;;;;5045835;28;20388;-78
2023/01/07 05:32:48;;;;;;;24.83;13.40;;;;;;;;;;5046146;28;20032;-78
2023/01/07 05:35:14;;;;;;;17.88;12.98;;;;;;;;;;5041057;28;20037;-78
2023/01/07 05:37:40;;;;;;;20.00;12.70;;;;;;;;;;5045021;28;20038;-78
2023/01/07 05:40:07;;;;;;;24.58;15.55;;;;;;;;;;5040026;28;20041;-78
2023/01/07 05:42:33;;;;;;;20.10;15.00;;;;;;;;;;5044412;28;20064;-78
2023/01/07 05:44:59;;;;;;;23.73;14.70;;;;;;;;;;5043394;28;20036;-78
2023/01/07 05:47:25;;;;;;;21.00;14.25;;;;;;;;;;5043736;28;20057;-78
2023/01/07 05:49:51;;;;;;;21.92;14.10;;;;;;;;;;5038107;28;20507;-78
2023/01/07 05:52:17;;;;;;;26.38;14.93;;;;;;;;;;5039393;28;20043;-78
2023/01/07 05:54:43;;;;;;;22.83;14.82;;;;;;;;;;5041833;28;20041;-79
2023/01/07 05:57:10;;;;;;;21.63;14.88;;;;;;;;;;5030972;28;20563;-77
2023/01/07 05:59:36;;;;;;;20.35;13.93;;;;;;;;;;5041142;28;20379;-78
2023/01/07 06:02:02;;;;;;;22.52;15.77;;;;;;;;;;5044043;28;20069;-78
2023/01/07 06:04:28;;;;;;;22.05;15.05;;;;;;;;;;5035491;28;20060;-78
2023/01/07 06:06:54;;;;;;;25.83;15.43;;;;;;;;;;5041974;28;20044;-77
2023/01/07 06:09:21;;;;;;;27.73;15.82;;;;;;;;;;5039473;28;20037;-77
2023/01/07 06:11:47;;;;;;;23.23;15.50;;;;;;;;;;5043604;28;20116;-78
2023/01/07 06:14:13;;;;;;;24.80;16.30;;;;;;;;;;5049711;28;20035;-76
2023/01/07 06:16:39;;;;;;;22.35;15.10;;;;;;;;;;5043924;28;20036;-77
2023/01/07 06:19:05;;;;;;;25.42;16.08;;;;;;;;;;5039713;28;20029;-77
2023/01/07 06:21:31;;;;;;;26.13;16.77;;;;;;;;;;5036447;28;20668;-78
2023/01/07 06:23:57;;;;;;;25.55;15.80;;;;;;;;;;5044032;28;20029;-77
2023/01/07 06:26:23;;;;;;;27.13;15.98;;;;;;;;;;5045696;28;20034;-77
2023/01/07 06:28:51;;;;;;;26.15;18.13;;;;;;;;;;5048987;28;20029;-77
2023/01/07 06:31:17;;;;;;;26.80;17.13;;;;;;;;;;5043809;28;20419;-77
2023/01/07 06:33:43;;;;;;;25.35;15.90;;;;;;;;;;5036152;28;20025;-77
2023/01/07 06:36:09;;;;;;;27.27;17.10;;;;;;;;;;5037977;28;20699;-77
2023/01/07 06:38:36;;;;;;;25.40;17.20;;;;;;;;;;5044022;28;20032;-77
2023/01/07 06:41:01;;;;;;;28.77;17.60;;;;;;;;;;5044571;28;20922;-77
2023/01/07 06:43:28;;;;;;;29.08;17.85;;;;;;;;;;5039061;28;20066;-78
2023/01/07 06:45:54;;;;;;;25.80;16.80;;;;;;;;;;5047521;28;20024;-78
2023/01/07 06:48:20;;;;;;;28.38;16.88;;;;;;;;;;5034198;28;20116;-78
2023/01/07 06:50:46;;;;;;;25.13;16.77;;;;;;;;;;5039592;28;20053;-78
2023/01/07 06:53:12;;;;;;;24.23;15.55;;;;;;;;;;5039883;28;20045;-77
2023/01/07 06:55:38;;;;;;;27.00;17.02;;;;;;;;;;5045861;28;20049;-77
2023/01/07 06:58:04;;;;;;;25.55;15.55;;;;;;;;;;5039513;28;20046;-77
2023/01/07 07:00:31;;;;;;;23.95;15.35;;;;;;;;;;5038820;28;20050;-77
2023/01/07 07:02:57;;;;;;;25.15;17.38;;;;;;;;;;5037229;28;20090;-78
2023/01/07 07:05:23;;;;;;;29.08;17.33;;;;;;;;;;5032365;28;20523;-77
2023/01/07 07:07:49;;;;;;;24.05;16.60;;;;;;;;;;5031030;28;20039;-77
2023/01/07 07:10:16;;;;;;;25.70;16.25;;;;;;;;;;5044293;28;20041;-77
2023/01/07 07:12:42;;;;;;;26.90;18.02;;;;;;;;;;5038864;28;20072;-77
2023/01/07 07:15:08;;;;;;;23.92;16.00;;;;;;;;;;5039849;28;20721;-77
2023/01/07 07:17:34;;;;;;;27.90;17.10;;;;;;;;;;5040871;28;20388;-77
2023/01/07 07:20:00;;;;;;;25.33;16.27;;;;;;;;;;5038229;28;20115;-78
2023/01/07 07:22:26;;;;;;;24.15;16.85;;;;;;;;;;5049678;28;20036;-78
2023/01/07 07:24:52;;;;;;;25.13;16.50;;;;;;;;;;5035253;28;20638;-80
2023/01/07 07:27:18;;;;;;;25.98;17.45;;;;;;;;;;5039410;28;20033;-80
2023/01/07 07:29:44;;;;;;;28.13;17.02;;;;;;;;;;5039425;28;20086;-79
2023/01/07 07:32:10;;;;;;;24.00;14.65;;;;;;;;;;5044012;28;20510;-79
2023/01/07 07:34:36;;;;;;;25.63;15.65;;;;;;;;;;5037353;28;20056;-80
2023/01/07 07:37:02;;;;;;;24.95;17.48;;;;;;;;;;5034403;28;21002;-80
2023/01/07 07:39:28;;;;;;;26.20;16.92;;;;;;;;;;5038120;28;20082;-79
2023/01/07 07:41:54;;;;;;;26.23;16.90;;;;;;;;;;5046957;28;20087;-79
2023/01/07 07:44:20;;;;;;;25.98;17.25;;;;;;;;;;5042266;28;20581;-79
2023/01/07 07:46:46;;;;;;;25.70;16.63;;;;;;;;;;5037522;28;20463;-79
2023/01/07 07:49:12;;;;;;;22.65;15.07;;;;;;;;;;5043198;28;20099;-80
2023/01/07 07:51:38;;;;;;;25.25;16.25;;;;;;;;;;5036195;28;20040;-80
2023/01/07 07:54:05;;;;;;;25.45;17.08;;;;;;;;;;5039290;28;20061;-79
2023/01/07 07:56:30;;;;;;;24.02;17.13;;;;;;;;;;5040212;28;20044;-79
2023/01/07 07:58:56;;;;;;;25.58;16.25;;;;;;;;;;5043463;28;20727;-81
2023/01/07 08:01:22;;;;;;;24.35;16.00;;;;;;;;;;5039822;28;20033;-79
2023/01/07 08:03:48;;;;;;;23.65;15.93;;;;;;;;;;5042287;28;20025;-79
2023/01/07 08:06:14;;;;;;;28.65;16.10;;;;;;;;;;5031782;28;20387;-78
2023/01/07 08:08:41;;;;;;;26.77;16.92;;;;;;;;;;5032999;28;20056;-76
2023/01/07 08:11:07;;;;;;;25.75;16.40;;;;;;;;;;5042344;28;20055;-78
2023/01/07 08:13:33;;;;;;;24.52;16.00;;;;;;;;;;5040206;28;20037;-78
2023/01/07 08:16:00;;;;;;;23.20;15.30;;;;;;;;;;5042913;28;20087;-78
2023/01/07 08:18:26;;;;;;;26.90;16.52;;;;;;;;;;5041535;28;20041;-79
2023/01/07 08:20:54;;;;;;;29.30;18.75;;;;;;;;;;5031706;28;20029;-78
2023/01/07 08:23:20;;;;;;;32.45;20.42;;;;;;;;;;5044076;28;20060;-79
2023/01/07 08:25:46;;;;;;;27.02;16.73;;;;;;;;;;5039925;28;20034;-79
2023/01/07 08:28:12;;;;;;;29.25;19.80;;;;;;;;;;5044535;28;20041;-78
2023/01/07 08:30:38;;;;;;;32.72;21.58;;;;;;;;;;5047109;28;20037;-80
2023/01/07 08:33:06;;;;;;;30.88;21.48;;;;;;;;;;5046943;28;20041;-79
2023/01/07 08:35:32;;;;;;;33.90;21.10;;;;;;;;;;5045159;28;20330;-79
2023/01/07 08:38:02;;;;;;;28.38;19.58;;;;;;;;;;5045613;28;20112;-79
2023/01/07 08:40:28;;;;;;;31.27;20.40;;;;;;;;;;5039936;28;20041;-78
2023/01/07 08:42:57;;;;;;;31.17;18.85;;;;;;;;;;5046323;28;20440;-78
2023/01/07 08:45:23;;;;;;;30.08;18.83;;;;;;;;;;5035659;28;20033;-79
2023/01/07 08:47:49;;;;;;;28.42;19.20;;;;;;;;;;5037940;28;20040;-79
2023/01/07 08:50:15;;;;;;;27.77;18.13;;;;;;;;;;5041973;28;20397;-79
2023/01/07 08:52:41;;;;;;;32.00;21.50;;;;;;;;;;5040958;28;20057;-80
2023/01/07 08:55:07;;;;;;;25.85;17.85;;;;;;;;;;5047790;28;20088;-79
2023/01/07 08:57:33;;;;;;;32.08;19.55;;;;;;;;;;5042569;28;20056;-79
2023/01/07 08:59:59;;;;;;;32.00;21.98;;;;;;;;;;5044337;28;20053;-79
2023/01/07 09:02:25;;;;;;;35.22;19.95;;;;;;;;;;5038430;28;20052;-79
2023/01/07 09:04:51;;;;;;;32.22;19.40;;;;;;;;;;5038452;28;20377;-78
2023/01/07 09:07:17;;;;;;;34.70;21.33;;;;;;;;;;5041320;28;20037;-80
2023/01/07 09:09:43;;;;;;;30.38;19.55;;;;;;;;;;5043199;28;20075;-80
2023/01/07 09:12:09;;;;;;;32.47;21.52;;;;;;;;;;5034581;28;20033;-80
2023/01/07 09:14:35;;;;;;;50.10;27.70;;;;;;;;;;5038879;28;20039;-80
2023/01/07 09:17:01;;;;;;;31.60;21.27;;;;;;;;;;5049933;28;20028;-79
2023/01/07 09:19:27;;;;;;;32.35;20.77;;;;;;;;;;5050030;28;20029;-80
2023/01/07 09:21:53;;;;;;;33.78;19.80;;;;;;;;;;5049322;28;20033;-80
2023/01/07 09:24:19;;;;;;;29.02;19.08;;;;;;;;;;5041991;28;20044;-79
2023/01/07 09:26:45;;;;;;;27.92;20.35;;;;;;;;;;5038826;28;20033;-80
2023/01/07 09:29:11;;;;;;;27.50;18.38;;;;;;;;;;5043522;28;20072;-79
2023/01/07 09:31:37;;;;;;;27.98;19.92;;;;;;;;;;5041273;28;20575;-80
2023/01/07 09:34:03;;;;;;;28.92;20.55;;;;;;;;;;5037303;28;20044;-80
2023/01/07 09:36:29;;;;;;;30.23;18.58;;;;;;;;;;5045070;28;20032;-80
2023/01/07 09:38:55;;;;;;;34.67;19.42;;;;;;;;;;5045191;28;20029;-81
2023/01/07 09:41:31;;;;;;;26.13;17.65;;;;;;;;;;5038340;28;20083;-81
2023/01/07 09:44:04;;;;;;;32.42;22.85;;;;;;;;;;5040622;28;20447;-81
2023/01/07 09:46:30;;;;;;;33.95;23.67;;;;;;;;;;5041184;28;20030;-81
2023/01/07 09:49:00;;;;;;;31.17;22.90;;;;;;;;;;5040139;28;20515;-80
2023/01/07 09:51:37;;;;;;;30.25;20.20;;;;;;;;;;5042812;28;20033;-79
2023/01/07 09:54:05;;;;;;;35.40;22.90;;;;;;;;;;5046430;28;20032;-78
2023/01/07 09:56:32;;;;;;;40.50;24.15;;;;;;;;;;5040232;28;20130;-79
2023/01/07 09:58:59;;;;;;;44.85;30.35;;;;;;;;;;5044891;28;20021;-79
2023/01/07 10:01:38;;;;;;;38.08;26.35;;;;;;;;;;5043800;28;20033;-79
2023/01/07 10:04:03;;;;;;;35.22;25.67;;;;;;;;;;5045688;28;20108;-79
2023/01/07 10:06:45;;;;;;;35.33;25.52;;;;;;;;;;5036752;28;20129;-78
2023/01/07 10:09:27;;;;;;;37.10;24.73;;;;;;;;;;5038366;28;20931;-79
2023/01/07 10:12:15;;;;;;;42.10;28.30;;;;;;;;;;5042808;28;20044;-78
2023/01/07 10:14:47;;;;;;;37.25;26.60;;;;;;;;;;5044119;28;20033;-79
2023/01/07 10:17:28;;;;;;;28.73;21.92;;;;;;;;;;5029718;28;20651;-79
2023/01/07 10:20:10;;;;;;;33.30;23.65;;;;;;;;;;5044106;28;20068;-79
2023/01/07 10:22:39;;;;;;;34.38;25.05;;;;;;;;;;5038613;28;20040;-79
2023/01/07 10:25:15;;;;;;;30.33;18.90;;;;;;;;;;5042471;28;20069;-79
2023/01/07 10:27:42;;;;;;;27.08;19.88;;;;;;;;;;5040395;28;20100;-79
2023/01/07 10:30:17;;;;;;;29.88;21.40;;;;;;;;;;5044581;28;21292;-79
2023/01/07 10:32:45;;;;;;;28.77;18.35;;;;;;;;;;5046999;28;20082;-79
2023/01/07 10:35:18;;;;;;;29.63;20.65;;;;;;;;;;5043653;28;20069;-79
2023/01/07 10:37:44;;;;;;;45.55;32.42;;;;;;;;;;5042257;28;20020;-79
2023/01/07 10:40:13;;;;;;;94.80;68.85;;;;;;;;;;5045992;28;20419;-79
2023/01/07 10:42:41;;;;;;;45.70;34.15;;;;;;;;;;5048076;28;20115;-79
2023/01/07 10:45:16;;;;;;;35.17;25.17;;;;;;;;;;5040120;28;20040;-79
2023/01/07 10:47:45;;;;;;;25.70;18.17;;;;;;;;;;5043045;28;20040;-79
2023/01/07 10:50:27;;;;;;;26.70;16.27;;;;;;;;;;5036909;28;20966;-80
2023/01/07 10:53:13;;;;;;;25.08;17.38;;;;;;;;;;5045617;28;20123;-80
2023/01/07 10:56:06;;;;;;;25.55;18.60;;;;;;;;;;4984356;28;20056;-80
2023/01/07 10:58:40;;;;;;;34.22;23.73;;;;;;;;;;5011602;28;20044;-80
2023/01/07 11:01:06;;;;;;;21.52;15.55;;;;;;;;;;5039839;28;20037;-79
2023/01/07 11:03:33;;;;;;;20.70;14.55;;;;;;;;;;5046388;28;20025;-80
2023/01/07 11:06:08;;;;;;;21.00;14.00;;;;;;;;;;5037893;28;20112;-79
2023/01/07 11:08:38;;;;;;;20.92;14.15;;;;;;;;;;5042189;28;20032;-80
2023/01/07 11:11:06;;;;;;;22.30;12.25;;;;;;;;;;5043104;28;20041;-80
2023/01/07 11:13:33;;;;;;;16.52;9.65;;;;;;;;;;5042161;28;20063;-80
2023/01/07 11:16:08;;;;;;;18.00;11.07;;;;;;;;;;5048835;28;20695;-79
2023/01/07 11:18:55;;;;;;;23.73;12.40;;;;;;;;;;5039571;28;20766;-80
2023/01/07 11:21:31;;;;;;;20.67;12.27;;;;;;;;;;5024226;28;20048;-80
2023/01/07 11:23:57;;;;;;;19.92;12.50;;;;;;;;;;5040589;28;20032;-79
2023/01/07 11:26:23;;;;;;;28.45;15.70;;;;;;;;;;5044525;28;20380;-81
2023/01/07 11:28:51;;;;;;;24.67;15.52;;;;;;;;;;5041373;28;20040;-80
2023/01/07 11:31:18;;;;;;;22.42;14.68;;;;;;;;;;5047299;28;20403;-80
2023/01/07 11:33:51;;;;;;;19.63;12.32;;;;;;;;;;5039654;28;20033;-79
2023/01/07 11:36:18;;;;;;;18.05;13.30;;;;;;;;;;5044203;28;20025;-79
2023/01/07 11:38:44;;;;;;;18.40;13.65;;;;;;;;;;5033448;28;20032;-80
2023/01/07 11:41:25;;;;;;;19.58;11.70;;;;;;;;;;5044830;28;20467;-79
2023/01/07 11:43:51;;;;;;;19.00;12.43;;;;;;;;;;5047299;28;20071;-79
2023/01/07 11:46:18;;;;;;;14.93;10.50;;;;;;;;;;5033673;28;20033;-79
2023/01/07 11:48:56;;;;;;;17.27;11.20;;;;;;;;;;5031430;28;20100;-79
2023/01/07 11:51:23;;;;;;;19.85;11.85;;;;;;;;;;5047544;28;20035;-79
2023/01/07 11:53:49;;;;;;;19.60;11.43;;;;;;;;;;5046723;28;20712;-79
2023/01/07 11:56:24;;;;;;;17.08;10.48;;;;;;;;;;5037497;28;20406;-79
2023/01/07 11:59:08;;;;;;;13.98;9.43;;;;;;;;;;5037964;28;20032;-80
2023/01/07 12:01:41;;;;;;;17.23;11.30;;;;;;;;;;5033342;28;20036;-80
2023/01/07 12:04:25;;;;;;;16.92;11.02;;;;;;;;;;5037244;28;20061;-80
2023/01/07 12:06:56;;;;;;;17.02;12.27;;;;;;;;;;5040158;28;20030;-80
2023/01/07 12:09:33;;;;;;;18.33;11.73;;;;;;;;;;5034660;28;20648;-80
2023/01/07 12:12:00;;;;;;;16.20;9.73;;;;;;;;;;5035397;28;20033;-80
2023/01/07 12:14:30;;;;;;;17.50;10.40;;;;;;;;;;5043035;28;20033;-80
2023/01/07 12:17:08;;;;;;;18.83;11.60;;;;;;;;;;5033877;28;20380;-80
2023/01/07 12:19:34;;;;;;;19.45;12.35;;;;;;;;;;5044240;28;20029;-80
2023/01/07 12:22:07;;;;;;;16.33;10.20;;;;;;;;;;5040418;28;20085;-80
2023/01/07 12:24:48;;;;;;;17.48;12.02;;;;;;;;;;5041304;28;20048;-80
2023/01/07 12:27:23;;;;;;;17.20;11.55;;;;;;;;;;5040733;28;20033;-79
2023/01/07 12:29:52;;;;;;;14.95;10.70;;;;;;;;;;5040411;28;20085;-80
2023/01/07 12:32:27;;;;;;;23.52;14.07;;;;;;;;;;5041393;28;20530;-80
2023/01/07 12:35:05;;;;;;;23.30;15.13;;;;;;;;;;5043818;28;20108;-80
2023/01/07 12:37:34;;;;;;;28.20;19.80;;;;;;;;;;5037647;28;20780;-80
2023/01/07 12:40:11;;;;;;;22.85;15.77;;;;;;;;;;5039033;28;20530;-79
2023/01/07 12:42:42;;;;;;;17.63;11.82;;;;;;;;;;5037231;28;20041;-80
2023/01/07 12:45:16;;;;;;;20.50;14.75;;;;;;;;;;5031031;28;20699;-78
2023/01/07 12:47:49;;;;;;;18.90;13.02;;;;;;;;;;5035816;28;20036;-80
2023/01/07 12:50:22;;;;;;;16.42;9.93;;;;;;;;;;5034438;28;20480;-80
2023/01/07 12:53:07;;;;;;;17.48;12.52;;;;;;;;;;5041491;28;20615;-80
2023/01/07 12:55:54;;;;;;;20.98;12.93;;;;;;;;;;5035978;28;20057;-80
2023/01/07 12:58:39;;;;;;;17.67;11.50;;;;;;;;;;5041756;28;20026;-80
2023/01/07 13:01:16;;;;;;;16.45;10.90;;;;;;;;;;5036688;28;20563;-79
2023/01/07 13:03:48;;;;;;;17.08;10.48;;;;;;;;;;5040026;28;20035;-80
2023/01/07 13:06:17;;;;;;;21.63;12.63;;;;;;;;;;5040003;28;20073;-80
2023/01/07 13:08:48;;;;;;;16.30;9.80;;;;;;;;;;5044483;28;20071;-80
2023/01/07 13:12:41;;;;;;;17.38;8.05;;;;;;;;;;5044708;28;20559;-80
2023/01/07 13:14:08;;;;;;;13.30;7.95;;;;;;;;;;5051330;28;20045;-80
2023/01/07 13:16:34;;;;;;;12.85;7.43;;;;;;;;;;5043258;28;20102;-80
2023/01/07 13:19:00;;;;;;;18.15;11.32;;;;;;;;;;5043091;28;20025;-79
2023/01/07 13:21:26;;;;;;;14.60;8.55;;;;;;;;;;5036959;28;20057;-80
2023/01/07 13:24:09;;;;;;;16.73;9.68;;;;;;;;;;5038396;28;20826;-79
2023/01/07 13:26:35;;;;;;;13.77;9.00;;;;;;;;;;5042509;28;20108;-80
2023/01/07 13:29:24;;;;;;;11.35;7.15;;;;;;;;;;5048737;28;20509;-80
2023/01/07 13:32:29;;;;;;;11.95;8.57;;;;;;;;;;5035539;28;20640;-79
2023/01/07 13:34:55;;;;;;;10.25;7.38;;;;;;;;;;4984884;28;20125;-80
2023/01/07 13:37:21;;;;;;;11.60;7.53;;;;;;;;;;4980225;28;20122;-80
2023/01/07 13:39:59;;;;;;;12.25;7.18;;;;;;;;;;5025674;28;20387;-80
2023/01/07 13:42:34;;;;;;;17.45;6.03;;;;;;;;;;5044489;28;20033;-80
2023/01/07 13:45:02;;;;;;;12.10;6.70;;;;;;;;;;5046698;28;20032;-80
2023/01/07 13:47:38;;;;;;;13.38;6.25;;;;;;;;;;5040070;28;20037;-80
2023/01/07 13:50:04;;;;;;;10.73;5.35;;;;;;;;;;5045579;28;20072;-80
2023/01/07 13:52:31;;;;;;;13.20;6.40;;;;;;;;;;5043744;28;20411;-80
2023/01/07 13:55:01;;;;;;;12.45;7.70;;;;;;;;;;5048403;28;20055;-80
2023/01/07 13:57:30;;;;;;;13.70;7.45;;;;;;;;;;5042163;28;20044;-80
2023/01/07 14:00:00;;;;;;;14.10;7.20;;;;;;;;;;5046024;28;20037;-80
2023/01/07 14:02:27;;;;;;;10.57;6.78;;;;;;;;;;5035805;28;20034;-80
2023/01/07 14:04:53;;;;;;;11.63;7.72;;;;;;;;;;5049800;28;20047;-80
2023/01/07 14:07:19;;;;;;;11.27;7.43;;;;;;;;;;5044141;28;20033;-79
2023/01/07 14:09:45;;;;;;;19.08;11.05;;;;;;;;;;5046291;28;20041;-80
2023/01/07 14:12:41;;;;;;;18.05;11.25;;;;;;;;;;5039837;28;20368;-80
2023/01/07 14:15:33;;;;;;;21.98;14.85;;;;;;;;;;5041992;28;20029;-80
2023/01/07 14:18:00;;;;;;;23.67;15.90;;;;;;;;;;5036696;28;20037;-79
2023/01/07 14:20:31;;;;;;;31.27;19.98;;;;;;;;;;5038207;28;20037;-78
2023/01/07 14:23:15;;;;;;;32.45;18.05;;;;;;;;;;5036714;28;20060;-80
2023/01/07 14:25:48;;;;;;;27.70;17.52;;;;;;;;;;5036589;28;20041;-80
2023/01/07 14:28:14;;;;;;;24.90;16.88;;;;;;;;;;5048240;28;20049;-80
2023/01/07 14:30:47;;;;;;;20.55;12.95;;;;;;;;;;5037127;28;20036;-80